sensor_id;sensor_type;location;lat;lon;timestamp;temperature;humidity
52963;DHT22;38827;53.024;6.596;2023-04-15T00:13:21;7.10;69.60
52963;DHT22;38827;53.024;6.596;2023-04-15T01:29:36;6.50;71.50
52963;DHT22;38827;53.024;6.596;2023-04-15T03:23:34;5.40;75.20
52963;DHT22;38827;53.024;6.596;2023-04-15T03:30:25;5.30;76.30
52963;DHT22;38827;53.024;6.596;2023-04-15T03:33:31;5.30;75.60
52963;DHT22;38827;53.024;6.596;2023-04-15T03:37:22;5.30;75.90
52963;DHT22;38827;53.024;6.596;2023-04-15T03:40:29;5.30;76.00
52963;DHT22;38827;53.024;6.596;2023-04-15T03:43:29;5.20;76.70
52963;DHT22;38827;53.024;6.596;2023-04-15T03:53:05;5.20;76.50
52963;DHT22;38827;53.024;6.596;2023-04-15T04:00:19;5.20;76.90
52963;DHT22;38827;53.024;6.596;2023-04-15T04:04:15;5.20;77.10
52963;DHT22;38827;53.024;6.596;2023-04-15T04:18:08;5.00;77.60
52963;DHT22;38827;53.024;6.596;2023-04-15T04:24:36;4.90;77.90
52963;DHT22;38827;53.024;6.596;2023-04-15T04:27:39;4.90;78.00
52963;DHT22;38827;53.024;6.596;2023-04-15T04:34:30;4.90;78.60
52963;DHT22;38827;53.024;6.596;2023-04-15T04:40:59;5.00;78.50
52963;DHT22;38827;53.024;6.596;2023-04-15T04:44:20;5.00;78.80
52963;DHT22;38827;53.024;6.596;2023-04-15T04:47:04;5.00;78.70
52963;DHT22;38827;53.024;6.596;2023-04-15T04:53:13;5.10;78.80
52963;DHT22;38827;53.024;6.596;2023-04-15T04:56:32;5.10;78.80
52963;DHT22;38827;53.024;6.596;2023-04-15T04:59:06;5.10;78.70
52963;DHT22;38827;53.024;6.596;2023-04-15T05:01:35;5.10;78.90
52963;DHT22;38827;53.024;6.596;2023-04-15T05:04:27;5.10;79.00
52963;DHT22;38827;53.024;6.596;2023-04-15T05:18:07;5.20;79.20
52963;DHT22;38827;53.024;6.596;2023-04-15T05:24:25;5.30;79.40
52963;DHT22;38827;53.024;6.596;2023-04-15T05:27:14;5.30;79.40
52963;DHT22;38827;53.024;6.596;2023-04-15T05:30:23;5.40;79.60
52963;DHT22;38827;53.024;6.596;2023-04-15T05:33:41;5.50;79.70
52963;DHT22;38827;53.024;6.596;2023-04-15T05:36:58;5.60;79.60
52963;DHT22;38827;53.024;6.596;2023-04-15T05:43:40;5.70;79.50
52963;DHT22;38827;53.024;6.596;2023-04-15T06:47:54;8.30;75.00
52963;DHT22;38827;53.024;6.596;2023-04-15T06:50:29;8.50;74.70
52963;DHT22;38827;53.024;6.596;2023-04-15T06:53:26;8.60;74.80
52963;DHT22;38827;53.024;6.596;2023-04-15T07:02:57;8.90;74.80
52963;DHT22;38827;53.024;6.596;2023-04-15T07:05:53;9.00;74.70
52963;DHT22;38827;53.024;6.596;2023-04-15T07:09:05;9.10;74.70
52963;DHT22;38827;53.024;6.596;2023-04-15T07:17:07;9.40;74.30
52963;DHT22;38827;53.024;6.596;2023-04-15T07:27:19;9.80;73.70
52963;DHT22;38827;53.024;6.596;2023-04-15T07:30:49;9.90;73.50
52963;DHT22;38827;53.024;6.596;2023-04-15T07:41:18;10.20;72.50
52963;DHT22;38827;53.024;6.596;2023-04-15T07:57:57;10.30;71.40
52963;DHT22;38827;53.024;6.596;2023-04-15T08:00:53;10.30;70.80
52963;DHT22;38827;53.024;6.596;2023-04-15T08:03:22;10.30;70.50
52963;DHT22;38827;53.024;6.596;2023-04-15T08:05:59;10.30;70.50
52963;DHT22;38827;53.024;6.596;2023-04-15T08:08:35;10.30;70.40
52963;DHT22;38827;53.024;6.596;2023-04-15T08:11:24;10.40;70.20
52963;DHT22;38827;53.024;6.596;2023-04-15T08:13:55;10.40;70.10
52963;DHT22;38827;53.024;6.596;2023-04-15T08:16:57;10.50;70.20
52963;DHT22;38827;53.024;6.596;2023-04-15T08:19:23;11.10;68.60
52963;DHT22;38827;53.024;6.596;2023-04-15T08:21:49;10.80;69.20
52963;DHT22;38827;53.024;6.596;2023-04-15T08:24:15;11.00;68.60
52963;DHT22;38827;53.024;6.596;2023-04-15T08:26:44;11.10;68.10
52963;DHT22;38827;53.024;6.596;2023-04-15T08:29:14;11.10;67.80
52963;DHT22;38827;53.024;6.596;2023-04-15T08:31:40;11.20;67.80
52963;DHT22;38827;53.024;6.596;2023-04-15T08:34:11;11.20;67.60
52963;DHT22;38827;53.024;6.596;2023-04-15T08:36:39;11.20;67.10
52963;DHT22;38827;53.024;6.596;2023-04-15T08:39:13;11.10;67.00
52963;DHT22;38827;53.024;6.596;2023-04-15T08:41:45;11.00;67.40
52963;DHT22;38827;53.024;6.596;2023-04-15T08:44:13;10.90;67.70
52963;DHT22;38827;53.024;6.596;2023-04-15T08:46:40;10.70;67.90
52963;DHT22;38827;53.024;6.596;2023-04-15T08:49:12;10.60;68.20
52963;DHT22;38827;53.024;6.596;2023-04-15T08:51:45;10.50;68.60
52963;DHT22;38827;53.024;6.596;2023-04-15T08:54:11;10.40;68.40
52963;DHT22;38827;53.024;6.596;2023-04-15T08:56:41;10.40;68.30
52963;DHT22;38827;53.024;6.596;2023-04-15T08:59:07;10.30;68.20
52963;DHT22;38827;53.024;6.596;2023-04-15T09:01:33;10.30;68.50
52963;DHT22;38827;53.024;6.596;2023-04-15T09:04:02;10.30;68.50
52963;DHT22;38827;53.024;6.596;2023-04-15T09:06:30;10.30;68.50
52963;DHT22;38827;53.024;6.596;2023-04-15T09:08:56;10.30;68.40
52963;DHT22;38827;53.024;6.596;2023-04-15T09:11:22;10.40;68.50
52963;DHT22;38827;53.024;6.596;2023-04-15T09:13:48;10.40;68.40
52963;DHT22;38827;53.024;6.596;2023-04-15T09:16:14;10.40;68.10
52963;DHT22;38827;53.024;6.596;2023-04-15T09:18:42;10.40;67.90
52963;DHT22;38827;53.024;6.596;2023-04-15T09:21:12;10.40;68.00
52963;DHT22;38827;53.024;6.596;2023-04-15T09:23:40;10.40;67.70
52963;DHT22;38827;53.024;6.596;2023-04-15T09:26:06;10.40;67.70
52963;DHT22;38827;53.024;6.596;2023-04-15T09:28:33;10.60;67.80
52963;DHT22;38827;53.024;6.596;2023-04-15T09:31:05;10.90;67.10
52963;DHT22;38827;53.024;6.596;2023-04-15T09:33:31;11.20;66.10
52963;DHT22;38827;53.024;6.596;2023-04-15T09:36:04;11.40;65.30
52963;DHT22;38827;53.024;6.596;2023-04-15T09:38:30;11.50;64.80
52963;DHT22;38827;53.024;6.596;2023-04-15T09:40:57;11.40;64.50
52963;DHT22;38827;53.024;6.596;2023-04-15T09:43:38;11.30;64.50
52963;DHT22;38827;53.024;6.596;2023-04-15T09:46:04;11.10;64.70
52963;DHT22;38827;53.024;6.596;2023-04-15T09:48:30;11.10;65.20
52963;DHT22;38827;53.024;6.596;2023-04-15T09:51:00;11.10;65.30
52963;DHT22;38827;53.024;6.596;2023-04-15T09:53:26;11.20;65.30
52963;DHT22;38827;53.024;6.596;2023-04-15T09:55:57;11.30;65.10
52963;DHT22;38827;53.024;6.596;2023-04-15T09:58:27;11.30;64.80
52963;DHT22;38827;53.024;6.596;2023-04-15T10:00:54;11.20;64.50
52963;DHT22;38827;53.024;6.596;2023-04-15T10:03:28;11.20;64.30
52963;DHT22;38827;53.024;6.596;2023-04-15T10:05:56;11.20;64.10
52963;DHT22;38827;53.024;6.596;2023-04-15T10:08:26;11.10;64.20
52963;DHT22;38827;53.024;6.596;2023-04-15T10:10:54;11.10;64.00
52963;DHT22;38827;53.024;6.596;2023-04-15T10:13:23;11.10;64.10
52963;DHT22;38827;53.024;6.596;2023-04-15T10:15:59;11.10;64.20
52963;DHT22;38827;53.024;6.596;2023-04-15T10:18:27;11.10;63.80
52963;DHT22;38827;53.024;6.596;2023-04-15T10:20:53;11.00;64.20
52963;DHT22;38827;53.024;6.596;2023-04-15T10:23:21;11.00;64.40
52963;DHT22;38827;53.024;6.596;2023-04-15T10:25:48;10.90;64.50
52963;DHT22;38827;53.024;6.596;2023-04-15T10:28:14;10.90;64.90
52963;DHT22;38827;53.024;6.596;2023-04-15T10:30:41;10.90;64.90
52963;DHT22;38827;53.024;6.596;2023-04-15T10:33:18;10.90;64.80
52963;DHT22;38827;53.024;6.596;2023-04-15T10:35:45;10.90;65.10
52963;DHT22;38827;53.024;6.596;2023-04-15T10:43:36;10.90;65.30
52963;DHT22;38827;53.024;6.596;2023-04-15T10:46:04;10.90;65.40
52963;DHT22;38827;53.024;6.596;2023-04-15T10:48:31;10.90;65.30
52963;DHT22;38827;53.024;6.596;2023-04-15T10:50:59;10.90;65.40
52963;DHT22;38827;53.024;6.596;2023-04-15T10:53:30;10.90;65.30
52963;DHT22;38827;53.024;6.596;2023-04-15T10:56:00;10.90;65.30
52963;DHT22;38827;53.024;6.596;2023-04-15T10:58:40;10.80;65.40
52963;DHT22;38827;53.024;6.596;2023-04-15T11:01:06;10.80;65.50
52963;DHT22;38827;53.024;6.596;2023-04-15T11:03:40;10.90;65.70
52963;DHT22;38827;53.024;6.596;2023-04-15T11:06:07;10.90;65.80
52963;DHT22;38827;53.024;6.596;2023-04-15T11:08:55;10.90;65.90
52963;DHT22;38827;53.024;6.596;2023-04-15T11:11:21;10.80;66.00
52963;DHT22;38827;53.024;6.596;2023-04-15T11:13:51;10.80;66.20
52963;DHT22;38827;53.024;6.596;2023-04-15T11:16:17;10.80;66.40
52963;DHT22;38827;53.024;6.596;2023-04-15T11:18:55;10.80;66.40
52963;DHT22;38827;53.024;6.596;2023-04-15T11:21:24;10.80;66.30
52963;DHT22;38827;53.024;6.596;2023-04-15T11:23:50;10.80;66.30
52963;DHT22;38827;53.024;6.596;2023-04-15T11:26:16;10.80;66.20
52963;DHT22;38827;53.024;6.596;2023-04-15T11:28:43;10.80;66.20
52963;DHT22;38827;53.024;6.596;2023-04-15T11:31:14;10.80;66.00
52963;DHT22;38827;53.024;6.596;2023-04-15T11:33:59;10.70;66.40
52963;DHT22;38827;53.024;6.596;2023-04-15T11:36:30;10.70;66.70
52963;DHT22;38827;53.024;6.596;2023-04-15T11:38:59;10.70;66.70
52963;DHT22;38827;53.024;6.596;2023-04-15T11:41:24;10.70;66.60
52963;DHT22;38827;53.024;6.596;2023-04-15T11:43:51;10.80;66.40
52963;DHT22;38827;53.024;6.596;2023-04-15T11:46:17;10.80;66.50
52963;DHT22;38827;53.024;6.596;2023-04-15T11:48:45;10.80;66.30
52963;DHT22;38827;53.024;6.596;2023-04-15T11:51:11;10.80;66.30
52963;DHT22;38827;53.024;6.596;2023-04-15T11:56:06;11.10;65.70
52963;DHT22;38827;53.024;6.596;2023-04-15T11:58:34;11.40;65.30
52963;DHT22;38827;53.024;6.596;2023-04-15T12:01:01;11.60;64.80
52963;DHT22;38827;53.024;6.596;2023-04-15T12:03:32;11.70;64.30
52963;DHT22;38827;53.024;6.596;2023-04-15T12:06:20;11.70;64.10
52963;DHT22;38827;53.024;6.596;2023-04-15T12:14:23;11.70;64.30
52963;DHT22;38827;53.024;6.596;2023-04-15T12:16:53;11.60;64.40
52963;DHT22;38827;53.024;6.596;2023-04-15T12:19:34;11.40;65.00
52963;DHT22;38827;53.024;6.596;2023-04-15T12:22:05;11.40;65.10
52963;DHT22;38827;53.024;6.596;2023-04-15T12:24:35;11.40;65.10
52963;DHT22;38827;53.024;6.596;2023-04-15T12:27:06;11.40;65.40
52963;DHT22;38827;53.024;6.596;2023-04-15T12:29:34;11.40;65.40
52963;DHT22;38827;53.024;6.596;2023-04-15T12:32:16;11.40;65.70
52963;DHT22;38827;53.024;6.596;2023-04-15T12:34:52;11.40;65.90
52963;DHT22;38827;53.024;6.596;2023-04-15T12:37:20;11.30;66.00
52963;DHT22;38827;53.024;6.596;2023-04-15T12:39:48;11.30;66.40
52963;DHT22;38827;53.024;6.596;2023-04-15T12:42:14;11.30;66.60
52963;DHT22;38827;53.024;6.596;2023-04-15T12:44:41;11.20;67.00
52963;DHT22;38827;53.024;6.596;2023-04-15T12:47:08;11.00;67.50
52963;DHT22;38827;53.024;6.596;2023-04-15T12:49:34;10.90;67.70
52963;DHT22;38827;53.024;6.596;2023-04-15T12:52:01;10.80;68.00
52963;DHT22;38827;53.024;6.596;2023-04-15T12:54:29;10.80;68.50
52963;DHT22;38827;53.024;6.596;2023-04-15T12:56:55;10.70;68.70
52963;DHT22;38827;53.024;6.596;2023-04-15T12:59:21;10.70;69.00
52963;DHT22;38827;53.024;6.596;2023-04-15T13:01:48;10.70;69.30
52963;DHT22;38827;53.024;6.596;2023-04-15T13:04:15;10.60;69.40
52963;DHT22;38827;53.024;6.596;2023-04-15T13:06:41;10.60;69.60
52963;DHT22;38827;53.024;6.596;2023-04-15T13:09:07;10.60;70.00
52963;DHT22;38827;53.024;6.596;2023-04-15T13:11:33;10.60;70.20
52963;DHT22;38827;53.024;6.596;2023-04-15T13:14:07;10.60;70.20
52963;DHT22;38827;53.024;6.596;2023-04-15T13:16:34;10.70;70.20
52963;DHT22;38827;53.024;6.596;2023-04-15T13:19:01;10.70;70.20
52963;DHT22;38827;53.024;6.596;2023-04-15T13:21:27;10.70;70.20
52963;DHT22;38827;53.024;6.596;2023-04-15T13:23:53;10.70;70.60
52963;DHT22;38827;53.024;6.596;2023-04-15T13:26:20;10.70;70.70
52963;DHT22;38827;53.024;6.596;2023-04-15T13:28:46;10.60;71.00
52963;DHT22;38827;53.024;6.596;2023-04-15T13:31:12;10.50;71.30
52963;DHT22;38827;53.024;6.596;2023-04-15T13:33:38;10.40;71.50
52963;DHT22;38827;53.024;6.596;2023-04-15T13:36:04;10.30;72.00
52963;DHT22;38827;53.024;6.596;2023-04-15T13:38:29;10.20;72.40
52963;DHT22;38827;53.024;6.596;2023-04-15T13:40:57;10.20;72.80
52963;DHT22;38827;53.024;6.596;2023-04-15T13:43:22;10.10;73.20
52963;DHT22;38827;53.024;6.596;2023-04-15T13:45:48;10.10;73.30
52963;DHT22;38827;53.024;6.596;2023-04-15T13:48:17;10.10;73.40
52963;DHT22;38827;53.024;6.596;2023-04-15T13:50:45;10.10;73.50
52963;DHT22;38827;53.024;6.596;2023-04-15T13:53:11;10.10;73.80
52963;DHT22;38827;53.024;6.596;2023-04-15T13:55:37;10.10;73.70
52963;DHT22;38827;53.024;6.596;2023-04-15T13:58:07;10.10;73.70
52963;DHT22;38827;53.024;6.596;2023-04-15T14:00:32;10.00;73.90
52963;DHT22;38827;53.024;6.596;2023-04-15T14:02:59;10.00;74.20
52963;DHT22;38827;53.024;6.596;2023-04-15T14:05:25;10.10;74.40
52963;DHT22;38827;53.024;6.596;2023-04-15T14:07:51;10.10;74.40
52963;DHT22;38827;53.024;6.596;2023-04-15T14:10:17;10.10;74.40
52963;DHT22;38827;53.024;6.596;2023-04-15T14:12:44;10.20;74.20
52963;DHT22;38827;53.024;6.596;2023-04-15T14:15:10;10.20;74.30
52963;DHT22;38827;53.024;6.596;2023-04-15T14:17:36;10.20;74.60
52963;DHT22;38827;53.024;6.596;2023-04-15T14:20:02;10.20;74.70
52963;DHT22;38827;53.024;6.596;2023-04-15T14:22:28;10.10;74.70
52963;DHT22;38827;53.024;6.596;2023-04-15T14:24:53;10.10;74.90
52963;DHT22;38827;53.024;6.596;2023-04-15T14:27:21;10.00;74.90
52963;DHT22;38827;53.024;6.596;2023-04-15T14:29:47;10.00;74.80
52963;DHT22;38827;53.024;6.596;2023-04-15T14:32:13;9.90;75.20
52963;DHT22;38827;53.024;6.596;2023-04-15T14:34:41;9.90;75.30
52963;DHT22;38827;53.024;6.596;2023-04-15T14:37:12;9.80;75.30
52963;DHT22;38827;53.024;6.596;2023-04-15T14:39:41;9.80;75.50
52963;DHT22;38827;53.024;6.596;2023-04-15T14:42:10;9.70;75.70
52963;DHT22;38827;53.024;6.596;2023-04-15T14:44:35;9.70;75.70
52963;DHT22;38827;53.024;6.596;2023-04-15T14:47:01;9.60;76.00
52963;DHT22;38827;53.024;6.596;2023-04-15T14:49:33;9.60;76.30
52963;DHT22;38827;53.024;6.596;2023-04-15T14:51:59;9.50;76.70
52963;DHT22;38827;53.024;6.596;2023-04-15T14:54:24;9.50;76.70
52963;DHT22;38827;53.024;6.596;2023-04-15T14:56:51;9.50;76.80
52963;DHT22;38827;53.024;6.596;2023-04-15T14:59:17;9.50;77.10
52963;DHT22;38827;53.024;6.596;2023-04-15T15:01:45;9.50;77.00
52963;DHT22;38827;53.024;6.596;2023-04-15T15:04:14;9.40;77.20
52963;DHT22;38827;53.024;6.596;2023-04-15T15:06:43;9.40;77.40
52963;DHT22;38827;53.024;6.596;2023-04-15T15:09:08;9.40;77.30
52963;DHT22;38827;53.024;6.596;2023-04-15T15:11:34;9.40;77.30
52963;DHT22;38827;53.024;6.596;2023-04-15T15:14:02;9.40;77.70
52963;DHT22;38827;53.024;6.596;2023-04-15T15:16:30;9.30;77.70
52963;DHT22;38827;53.024;6.596;2023-04-15T15:18:59;9.30;77.80
52963;DHT22;38827;53.024;6.596;2023-04-15T15:21:33;9.30;77.80
52963;DHT22;38827;53.024;6.596;2023-04-15T15:24:13;9.40;78.00
52963;DHT22;38827;53.024;6.596;2023-04-15T15:26:48;9.40;78.20
52963;DHT22;38827;53.024;6.596;2023-04-15T15:29:18;9.40;78.50
52963;DHT22;38827;53.024;6.596;2023-04-15T15:31:56;9.30;78.30
52963;DHT22;38827;53.024;6.596;2023-04-15T15:34:42;9.30;78.40
52963;DHT22;38827;53.024;6.596;2023-04-15T15:37:25;9.20;78.50
52963;DHT22;38827;53.024;6.596;2023-04-15T15:40:03;9.20;78.70
52963;DHT22;38827;53.024;6.596;2023-04-15T15:42:32;9.10;79.10
52963;DHT22;38827;53.024;6.596;2023-04-15T15:45:18;9.10;79.20
52963;DHT22;38827;53.024;6.596;2023-04-15T15:47:55;9.10;79.30
52963;DHT22;38827;53.024;6.596;2023-04-15T15:50:22;9.00;79.40
52963;DHT22;38827;53.024;6.596;2023-04-15T15:52:50;9.00;79.70
52963;DHT22;38827;53.024;6.596;2023-04-15T15:55:23;9.00;79.80
52963;DHT22;38827;53.024;6.596;2023-04-15T15:57:54;8.90;79.80
52963;DHT22;38827;53.024;6.596;2023-04-15T16:00:23;8.90;79.90
52963;DHT22;38827;53.024;6.596;2023-04-15T16:03:07;8.90;80.10
52963;DHT22;38827;53.024;6.596;2023-04-15T16:05:44;8.90;80.00
52963;DHT22;38827;53.024;6.596;2023-04-15T16:08:34;8.90;80.30
52963;DHT22;38827;53.024;6.596;2023-04-15T16:11:14;8.90;80.40
52963;DHT22;38827;53.024;6.596;2023-04-15T16:13:46;8.90;80.50
52963;DHT22;38827;53.024;6.596;2023-04-15T16:16:12;8.80;80.60
52963;DHT22;38827;53.024;6.596;2023-04-15T16:18:50;8.80;80.50
52963;DHT22;38827;53.024;6.596;2023-04-15T16:21:21;8.80;80.70
52963;DHT22;38827;53.024;6.596;2023-04-15T16:23:57;8.80;80.80
52963;DHT22;38827;53.024;6.596;2023-04-15T16:26:29;8.80;81.20
52963;DHT22;38827;53.024;6.596;2023-04-15T16:28:55;8.70;81.30
52963;DHT22;38827;53.024;6.596;2023-04-15T16:31:21;8.70;81.50
52963;DHT22;38827;53.024;6.596;2023-04-15T16:33:57;8.60;81.20
52963;DHT22;38827;53.024;6.596;2023-04-15T16:36:32;8.60;81.60
52963;DHT22;38827;53.024;6.596;2023-04-15T16:39:14;8.70;81.40
52963;DHT22;38827;53.024;6.596;2023-04-15T16:41:43;8.60;81.50
52963;DHT22;38827;53.024;6.596;2023-04-15T16:44:09;8.60;81.50
52963;DHT22;38827;53.024;6.596;2023-04-15T16:46:38;8.60;81.50
52963;DHT22;38827;53.024;6.596;2023-04-15T16:49:12;8.70;81.70
52963;DHT22;38827;53.024;6.596;2023-04-15T16:51:41;8.70;81.70
52963;DHT22;38827;53.024;6.596;2023-04-15T16:54:17;8.60;82.00
52963;DHT22;38827;53.024;6.596;2023-04-15T16:56:49;8.70;81.90
52963;DHT22;38827;53.024;6.596;2023-04-15T16:59:18;8.60;81.90
52963;DHT22;38827;53.024;6.596;2023-04-15T17:01:58;8.60;82.10
52963;DHT22;38827;53.024;6.596;2023-04-15T17:04:30;8.60;82.20
52963;DHT22;38827;53.024;6.596;2023-04-15T17:07:12;8.60;82.50
52963;DHT22;38827;53.024;6.596;2023-04-15T17:10:07;8.60;82.50
52963;DHT22;38827;53.024;6.596;2023-04-15T17:12:40;8.60;82.30
52963;DHT22;38827;53.024;6.596;2023-04-15T17:15:13;8.60;82.60
52963;DHT22;38827;53.024;6.596;2023-04-15T17:17:48;8.60;82.80
52963;DHT22;38827;53.024;6.596;2023-04-15T17:20:16;8.60;82.70
52963;DHT22;38827;53.024;6.596;2023-04-15T17:22:51;8.60;82.80
52963;DHT22;38827;53.024;6.596;2023-04-15T17:25:24;8.50;82.80
52963;DHT22;38827;53.024;6.596;2023-04-15T17:27:53;8.60;82.90
52963;DHT22;38827;53.024;6.596;2023-04-15T17:30:46;8.60;83.00
52963;DHT22;38827;53.024;6.596;2023-04-15T17:33:20;8.50;83.30
52963;DHT22;38827;53.024;6.596;2023-04-15T17:35:54;8.50;83.20
52963;DHT22;38827;53.024;6.596;2023-04-15T17:38:34;8.50;83.30
52963;DHT22;38827;53.024;6.596;2023-04-15T17:41:07;8.50;83.30
52963;DHT22;38827;53.024;6.596;2023-04-15T17:43:47;8.50;83.30
52963;DHT22;38827;53.024;6.596;2023-04-15T17:46:24;8.50;83.40
52963;DHT22;38827;53.024;6.596;2023-04-15T17:48:58;8.50;83.70
52963;DHT22;38827;53.024;6.596;2023-04-15T17:51:30;8.50;83.50
52963;DHT22;38827;53.024;6.596;2023-04-15T17:53:59;8.50;83.70
52963;DHT22;38827;53.024;6.596;2023-04-15T17:56:44;8.50;84.00
52963;DHT22;38827;53.024;6.596;2023-04-15T17:59:16;8.50;83.70
52963;DHT22;38827;53.024;6.596;2023-04-15T18:01:47;8.50;83.90
52963;DHT22;38827;53.024;6.596;2023-04-15T18:04:18;8.50;84.00
52963;DHT22;38827;53.024;6.596;2023-04-15T18:06:44;8.50;84.00
52963;DHT22;38827;53.024;6.596;2023-04-15T18:09:16;8.50;84.10
52963;DHT22;38827;53.024;6.596;2023-04-15T18:11:53;8.50;84.00
52963;DHT22;38827;53.024;6.596;2023-04-15T18:14:23;8.50;84.30
52963;DHT22;38827;53.024;6.596;2023-04-15T18:16:50;8.50;84.40
52963;DHT22;38827;53.024;6.596;2023-04-15T18:19:23;8.50;84.30
52963;DHT22;38827;53.024;6.596;2023-04-15T18:21:58;8.50;84.60
52963;DHT22;38827;53.024;6.596;2023-04-15T18:24:40;8.50;84.50
52963;DHT22;38827;53.024;6.596;2023-04-15T18:27:14;8.50;84.90
52963;DHT22;38827;53.024;6.596;2023-04-15T18:29:44;8.40;84.60
52963;DHT22;38827;53.024;6.596;2023-04-15T18:32:12;8.40;84.80
52963;DHT22;38827;53.024;6.596;2023-04-15T18:34:49;8.50;84.80
52963;DHT22;38827;53.024;6.596;2023-04-15T18:37:30;8.50;85.10
52963;DHT22;38827;53.024;6.596;2023-04-15T18:40:05;8.50;85.00
52963;DHT22;38827;53.024;6.596;2023-04-15T18:42:48;8.50;85.10
52963;DHT22;38827;53.024;6.596;2023-04-15T18:45:25;8.50;85.10
52963;DHT22;38827;53.024;6.596;2023-04-15T18:47:54;8.50;85.10
52963;DHT22;38827;53.024;6.596;2023-04-15T18:50:35;8.50;85.20
52963;DHT22;38827;53.024;6.596;2023-04-15T18:53:11;8.50;85.30
52963;DHT22;38827;53.024;6.596;2023-04-15T18:55:38;8.50;85.30
52963;DHT22;38827;53.024;6.596;2023-04-15T18:58:13;8.50;85.30
52963;DHT22;38827;53.024;6.596;2023-04-15T19:00:44;8.50;85.30
52963;DHT22;38827;53.024;6.596;2023-04-15T19:03:20;8.50;85.40
52963;DHT22;38827;53.024;6.596;2023-04-15T19:05:51;8.50;85.40
52963;DHT22;38827;53.024;6.596;2023-04-15T19:08:20;8.50;85.70
52963;DHT22;38827;53.024;6.596;2023-04-15T19:11:01;8.50;85.40
52963;DHT22;38827;53.024;6.596;2023-04-15T19:13:30;8.50;85.70
52963;DHT22;38827;53.024;6.596;2023-04-15T19:16:12;8.50;85.50
52963;DHT22;38827;53.024;6.596;2023-04-15T19:18:41;8.60;85.50
52963;DHT22;38827;53.024;6.596;2023-04-15T19:21:12;8.50;85.80
52963;DHT22;38827;53.024;6.596;2023-04-15T19:23:45;8.60;85.70
52963;DHT22;38827;53.024;6.596;2023-04-15T19:26:19;8.60;85.90
52963;DHT22;38827;53.024;6.596;2023-04-15T19:28:46;8.50;85.90
52963;DHT22;38827;53.024;6.596;2023-04-15T19:31:19;8.60;85.90
52963;DHT22;38827;53.024;6.596;2023-04-15T19:33:49;8.60;86.20
52963;DHT22;38827;53.024;6.596;2023-04-15T19:36:23;8.60;86.00
52963;DHT22;38827;53.024;6.596;2023-04-15T19:39:18;8.60;86.00
52963;DHT22;38827;53.024;6.596;2023-04-15T19:41:47;8.60;86.10
52963;DHT22;38827;53.024;6.596;2023-04-15T19:44:17;8.50;86.70
52963;DHT22;38827;53.024;6.596;2023-04-15T19:47:00;8.60;86.40
52963;DHT22;38827;53.024;6.596;2023-04-15T19:49:26;8.60;86.50
52963;DHT22;38827;53.024;6.596;2023-04-15T19:51:54;8.60;86.50
52963;DHT22;38827;53.024;6.596;2023-04-15T19:54:21;8.60;86.50
52963;DHT22;38827;53.024;6.596;2023-04-15T19:57:07;8.60;86.70
52963;DHT22;38827;53.024;6.596;2023-04-15T19:59:34;8.60;86.60
52963;DHT22;38827;53.024;6.596;2023-04-15T20:02:05;8.60;86.50
52963;DHT22;38827;53.024;6.596;2023-04-15T20:04:43;8.60;86.70
52963;DHT22;38827;53.024;6.596;2023-04-15T20:07:14;8.60;86.90
52963;DHT22;38827;53.024;6.596;2023-04-15T20:09:45;8.60;86.90
52963;DHT22;38827;53.024;6.596;2023-04-15T20:12:16;8.60;86.80
52963;DHT22;38827;53.024;6.596;2023-04-15T20:14:50;8.60;86.80
52963;DHT22;38827;53.024;6.596;2023-04-15T20:17:27;8.70;86.70
52963;DHT22;38827;53.024;6.596;2023-04-15T20:19:58;8.70;86.70
52963;DHT22;38827;53.024;6.596;2023-04-15T20:22:29;8.70;86.90
52963;DHT22;38827;53.024;6.596;2023-04-15T20:25:04;8.70;86.80
52963;DHT22;38827;53.024;6.596;2023-04-15T20:27:30;8.80;86.80
52963;DHT22;38827;53.024;6.596;2023-04-15T20:29:56;8.80;86.80
52963;DHT22;38827;53.024;6.596;2023-04-15T20:32:33;8.80;87.00
52963;DHT22;38827;53.024;6.596;2023-04-15T20:35:19;8.80;86.90
52963;DHT22;38827;53.024;6.596;2023-04-15T20:37:51;8.80;87.00
52963;DHT22;38827;53.024;6.596;2023-04-15T20:40:36;8.80;86.90
52963;DHT22;38827;53.024;6.596;2023-04-15T20:43:04;8.80;86.90
52963;DHT22;38827;53.024;6.596;2023-04-15T20:45:39;8.80;87.20
52963;DHT22;38827;53.024;6.596;2023-04-15T20:48:05;8.80;87.10
52963;DHT22;38827;53.024;6.596;2023-04-15T20:50:42;8.80;87.10
52963;DHT22;38827;53.024;6.596;2023-04-15T20:53:10;8.80;87.10
52963;DHT22;38827;53.024;6.596;2023-04-15T20:55:41;8.80;87.20
52963;DHT22;38827;53.024;6.596;2023-04-15T20:58:13;8.80;87.10
52963;DHT22;38827;53.024;6.596;2023-04-15T21:00:48;8.90;87.20
52963;DHT22;38827;53.024;6.596;2023-04-15T21:03:18;8.90;87.20
52963;DHT22;38827;53.024;6.596;2023-04-15T21:05:44;8.90;87.20
52963;DHT22;38827;53.024;6.596;2023-04-15T21:08:10;8.90;87.20
52963;DHT22;38827;53.024;6.596;2023-04-15T21:10:37;9.00;87.10
52963;DHT22;38827;53.024;6.596;2023-04-15T21:13:04;9.00;87.00
52963;DHT22;38827;53.024;6.596;2023-04-15T21:15:31;8.90;87.20
52963;DHT22;38827;53.024;6.596;2023-04-15T21:17:57;8.90;87.20
52963;DHT22;38827;53.024;6.596;2023-04-15T21:20:28;9.00;87.00
52963;DHT22;38827;53.024;6.596;2023-04-15T21:22:59;9.00;86.90
52963;DHT22;38827;53.024;6.596;2023-04-15T21:25:25;9.10;87.00
52963;DHT22;38827;53.024;6.596;2023-04-15T21:27:51;9.10;86.90
52963;DHT22;38827;53.024;6.596;2023-04-15T21:30:20;9.10;86.90
52963;DHT22;38827;53.024;6.596;2023-04-15T21:32:48;9.10;87.00
52963;DHT22;38827;53.024;6.596;2023-04-15T21:35:13;9.10;87.10
52963;DHT22;38827;53.024;6.596;2023-04-15T21:37:39;9.10;87.10
52963;DHT22;38827;53.024;6.596;2023-04-15T21:40:06;9.10;87.00
52963;DHT22;38827;53.024;6.596;2023-04-15T21:42:44;9.10;87.10
52963;DHT22;38827;53.024;6.596;2023-04-15T21:45:10;9.10;87.00
52963;DHT22;38827;53.024;6.596;2023-04-15T21:47:36;9.10;87.20
52963;DHT22;38827;53.024;6.596;2023-04-15T21:50:07;9.10;87.00
52963;DHT22;38827;53.024;6.596;2023-04-15T21:52:34;9.10;87.20
52963;DHT22;38827;53.024;6.596;2023-04-15T21:55:00;9.10;87.10
52963;DHT22;38827;53.024;6.596;2023-04-15T22:01:16;9.10;87.20
52963;DHT22;38827;53.024;6.596;2023-04-15T22:03:42;9.10;87.30
52963;DHT22;38827;53.024;6.596;2023-04-15T22:06:08;9.10;87.20
52963;DHT22;38827;53.024;6.596;2023-04-15T22:08:36;9.10;87.20
52963;DHT22;38827;53.024;6.596;2023-04-15T22:11:02;9.10;87.10
52963;DHT22;38827;53.024;6.596;2023-04-15T22:13:29;9.10;87.20
52963;DHT22;38827;53.024;6.596;2023-04-15T22:15:55;9.10;87.30
52963;DHT22;38827;53.024;6.596;2023-04-15T22:18:20;9.10;87.40
52963;DHT22;38827;53.024;6.596;2023-04-15T22:20:46;9.10;87.40
52963;DHT22;38827;53.024;6.596;2023-04-15T22:23:12;9.10;87.30
52963;DHT22;38827;53.024;6.596;2023-04-15T22:25:42;9.10;87.40
52963;DHT22;38827;53.024;6.596;2023-04-15T22:28:08;9.10;87.40
52963;DHT22;38827;53.024;6.596;2023-04-15T22:30:40;9.10;87.50
52963;DHT22;38827;53.024;6.596;2023-04-15T22:33:09;9.10;87.50
52963;DHT22;38827;53.024;6.596;2023-04-15T22:35:35;9.10;87.50